Fort Sevcenko, Kazakhstan
Current Conditions -  °F | °C
As of 3:00 PM on Monday 20 Oct 2014 (Local Time) from UATE Reporting Station
Overcast Overcast  
Wind Chill: 39°   Ceiling: 3000
Heat Index: 45°   Visibility: 6mi
Dew Point: 30°   Wind: 11mph
Humidity: 57%   Direction: 330°NNW
Pressure: 30.24"   Gusts: NA
Location:  44.55°N, 50.25°E
Report Text: UATE 201100Z 33005MPS 9999 OVC030 07/M01 Q1024 R30/0///70 NOSIGRMK QFE766/1022
Loading
Personal Weather Stations






























Interactive Weather Map
Tropical Storm Tracking
New forecast layout! Learn more

10-Day Weather Forecast

Advertisements
Track Severe Weather on mobile